sensor_id;sensor_type;location;lat;lon;timestamp;temperature;humidity
20706;DHT22;10514;49.468;11.044;2023-08-08T00:02:31;12.10;52.80
20706;DHT22;10514;49.468;11.044;2023-08-08T00:07:22;11.80;50.70
20706;DHT22;10514;49.468;11.044;2023-08-08T00:09:48;12.00;47.60
20706;DHT22;10514;49.468;11.044;2023-08-08T00:12:14;11.90;31.10
20706;DHT22;10514;49.468;11.044;2023-08-08T00:14:41;11.90;33.20
20706;DHT22;10514;49.468;11.044;2023-08-08T00:17:06;12.10;48.20
20706;DHT22;10514;49.468;11.044;2023-08-08T00:19:32;11.70;48.90
20706;DHT22;10514;49.468;11.044;2023-08-08T00:21:57;11.80;47.50
20706;DHT22;10514;49.468;11.044;2023-08-08T00:24:23;12.00;32.80
20706;DHT22;10514;49.468;11.044;2023-08-08T00:26:48;11.90;47.10
20706;DHT22;10514;49.468;11.044;2023-08-08T00:31:40;12.00;29.80
20706;DHT22;10514;49.468;11.044;2023-08-08T00:36:31;12.00;31.00
20706;DHT22;10514;49.468;11.044;2023-08-08T00:41:23;12.20;46.50
20706;DHT22;10514;49.468;11.044;2023-08-08T00:43:48;12.00;46.10
20706;DHT22;10514;49.468;11.044;2023-08-08T00:46:17;12.30;46.30
20706;DHT22;10514;49.468;11.044;2023-08-08T00:48:43;12.00;46.90
20706;DHT22;10514;49.468;11.044;2023-08-08T00:51:08;12.10;31.30
20706;DHT22;10514;49.468;11.044;2023-08-08T00:53:34;12.20;38.60
20706;DHT22;10514;49.468;11.044;2023-08-08T00:56:00;12.00;44.30
20706;DHT22;10514;49.468;11.044;2023-08-08T00:58:25;12.10;44.20
20706;DHT22;10514;49.468;11.044;2023-08-08T01:03:20;12.30;41.30
20706;DHT22;10514;49.468;11.044;2023-08-08T01:05:51;12.20;26.40
20706;DHT22;10514;49.468;11.044;2023-08-08T01:08:19;12.40;38.80
20706;DHT22;10514;49.468;11.044;2023-08-08T01:10:47;12.10;37.30
20706;DHT22;10514;49.468;11.044;2023-08-08T01:15:49;12.10;37.20
20706;DHT22;10514;49.468;11.044;2023-08-08T01:20:42;11.90;36.70
20706;DHT22;10514;49.468;11.044;2023-08-08T01:25:50;12.30;31.30
20706;DHT22;10514;49.468;11.044;2023-08-08T01:28:20;12.60;31.50
20706;DHT22;10514;49.468;11.044;2023-08-08T01:30:47;12.30;31.60
20706;DHT22;10514;49.468;11.044;2023-08-08T01:33:13;12.50;31.60
20706;DHT22;10514;49.468;11.044;2023-08-08T01:35:41;12.20;31.90
20706;DHT22;10514;49.468;11.044;2023-08-08T01:38:14;12.30;32.30
20706;DHT22;10514;49.468;11.044;2023-08-08T01:40:43;12.30;32.80
20706;DHT22;10514;49.468;11.044;2023-08-08T01:43:09;12.30;34.60
20706;DHT22;10514;49.468;11.044;2023-08-08T01:45:36;12.30;36.60
20706;DHT22;10514;49.468;11.044;2023-08-08T01:48:09;12.30;21.90
20706;DHT22;10514;49.468;11.044;2023-08-08T01:50:36;12.20;38.60
20706;DHT22;10514;49.468;11.044;2023-08-08T01:53:02;12.60;36.30
20706;DHT22;10514;49.468;11.044;2023-08-08T01:57:53;12.50;34.20
20706;DHT22;10514;49.468;11.044;2023-08-08T02:00:19;12.30;33.10
20706;DHT22;10514;49.468;11.044;2023-08-08T02:02:45;12.10;32.40
20706;DHT22;10514;49.468;11.044;2023-08-08T02:05:11;12.20;32.70
20706;DHT22;10514;49.468;11.044;2023-08-08T02:07:36;12.20;32.00
20706;DHT22;10514;49.468;11.044;2023-08-08T02:10:02;12.20;33.10
20706;DHT22;10514;49.468;11.044;2023-08-08T02:12:28;12.30;35.60
20706;DHT22;10514;49.468;11.044;2023-08-08T02:17:21;12.20;23.80
20706;DHT22;10514;49.468;11.044;2023-08-08T02:22:12;12.30;40.50
20706;DHT22;10514;49.468;11.044;2023-08-08T02:24:38;12.20;26.30
20706;DHT22;10514;49.468;11.044;2023-08-08T02:27:04;12.20;27.00
20706;DHT22;10514;49.468;11.044;2023-08-08T02:29:30;12.00;43.80
20706;DHT22;10514;49.468;11.044;2023-08-08T02:34:21;12.20;41.80
20706;DHT22;10514;49.468;11.044;2023-08-08T02:36:47;12.10;41.00
20706;DHT22;10514;49.468;11.044;2023-08-08T02:39:12;12.10;39.20
20706;DHT22;10514;49.468;11.044;2023-08-08T02:44:03;12.20;41.50
20706;DHT22;10514;49.468;11.044;2023-08-08T02:46:29;12.30;42.70
20706;DHT22;10514;49.468;11.044;2023-08-08T02:48:54;12.10;28.50
20706;DHT22;10514;49.468;11.044;2023-08-08T02:51:20;12.20;46.00
20706;DHT22;10514;49.468;11.044;2023-08-08T02:53:46;12.10;30.60
20706;DHT22;10514;49.468;11.044;2023-08-08T02:56:11;12.10;44.10
20706;DHT22;10514;49.468;11.044;2023-08-08T02:58:37;12.10;42.60
20706;DHT22;10514;49.468;11.044;2023-08-08T03:01:02;12.10;37.40
20706;DHT22;10514;49.468;11.044;2023-08-08T03:03:28;12.30;36.20
20706;DHT22;10514;49.468;11.044;2023-08-08T03:05:53;12.10;31.40
20706;DHT22;10514;49.468;11.044;2023-08-08T03:08:19;12.30;32.80
20706;DHT22;10514;49.468;11.044;2023-08-08T03:10:44;12.00;37.10
20706;DHT22;10514;49.468;11.044;2023-08-08T03:13:10;12.30;40.50
20706;DHT22;10514;49.468;11.044;2023-08-08T03:20:28;12.40;42.30
20706;DHT22;10514;49.468;11.044;2023-08-08T03:22:54;12.40;44.30
20706;DHT22;10514;49.468;11.044;2023-08-08T03:25:19;12.30;45.20
20706;DHT22;10514;49.468;11.044;2023-08-08T03:27:45;12.60;47.80
20706;DHT22;10514;49.468;11.044;2023-08-08T03:30:11;12.10;48.30
20706;DHT22;10514;49.468;11.044;2023-08-08T03:35:02;12.30;50.20
20706;DHT22;10514;49.468;11.044;2023-08-08T03:37:29;12.10;50.50
20706;DHT22;10514;49.468;11.044;2023-08-08T03:39:54;12.70;50.60
20706;DHT22;10514;49.468;11.044;2023-08-08T03:42:20;12.60;50.70
20706;DHT22;10514;49.468;11.044;2023-08-08T03:44:45;12.20;52.60
20706;DHT22;10514;49.468;11.044;2023-08-08T03:47:11;12.10;52.40
20706;DHT22;10514;49.468;11.044;2023-08-08T03:52:03;12.20;42.40
20706;DHT22;10514;49.468;11.044;2023-08-08T03:56:54;12.30;57.20
20706;DHT22;10514;49.468;11.044;2023-08-08T03:59:20;12.40;60.20
20706;DHT22;10514;49.468;11.044;2023-08-08T04:01:45;12.10;46.90
20706;DHT22;10514;49.468;11.044;2023-08-08T04:04:11;12.00;48.60
20706;DHT22;10514;49.468;11.044;2023-08-08T04:06:36;11.80;64.40
20706;DHT22;10514;49.468;11.044;2023-08-08T04:09:02;11.90;66.00
20706;DHT22;10514;49.468;11.044;2023-08-08T04:11:27;12.10;66.80
20706;DHT22;10514;49.468;11.044;2023-08-08T04:13:53;11.90;68.60
20706;DHT22;10514;49.468;11.044;2023-08-08T04:16:18;12.00;54.00
20706;DHT22;10514;49.468;11.044;2023-08-08T04:18:44;12.10;66.40
20706;DHT22;10514;49.468;11.044;2023-08-08T04:21:09;11.90;66.00
20706;DHT22;10514;49.468;11.044;2023-08-08T04:23:35;12.00;64.70
20706;DHT22;10514;49.468;11.044;2023-08-08T04:26:00;12.00;55.90
20706;DHT22;10514;49.468;11.044;2023-08-08T04:28:26;12.00;68.60
20706;DHT22;10514;49.468;11.044;2023-08-08T04:30:51;11.80;69.70
20706;DHT22;10514;49.468;11.044;2023-08-08T04:33:17;11.80;66.60
20706;DHT22;10514;49.468;11.044;2023-08-08T04:35:42;12.00;71.40
20706;DHT22;10514;49.468;11.044;2023-08-08T04:38:08;11.90;73.70
20706;DHT22;10514;49.468;11.044;2023-08-08T04:40:34;12.00;73.90
20706;DHT22;10514;49.468;11.044;2023-08-08T04:43:00;11.90;75.00
20706;DHT22;10514;49.468;11.044;2023-08-08T04:47:54;12.00;63.50
20706;DHT22;10514;49.468;11.044;2023-08-08T04:50:19;12.20;69.40
20706;DHT22;10514;49.468;11.044;2023-08-08T04:55:11;12.30;70.70
20706;DHT22;10514;49.468;11.044;2023-08-08T04:57:36;12.40;71.50
20706;DHT22;10514;49.468;11.044;2023-08-08T05:00:02;12.50;64.50
20706;DHT22;10514;49.468;11.044;2023-08-08T05:02:30;12.40;44.60
20706;DHT22;10514;49.468;11.044;2023-08-08T05:14:39;14.10;13.50
20706;DHT22;10514;49.468;11.044;2023-08-08T05:17:05;14.80;1.00
20706;DHT22;10514;49.468;11.044;2023-08-08T05:19:30;15.10;1.00
20706;DHT22;10514;49.468;11.044;2023-08-08T05:24:22;15.40;1.00
20706;DHT22;10514;49.468;11.044;2023-08-08T05:29:13;15.80;1.00
20706;DHT22;10514;49.468;11.044;2023-08-08T05:31:39;16.20;1.00
20706;DHT22;10514;49.468;11.044;2023-08-08T05:38:56;16.40;1.00
20706;DHT22;10514;49.468;11.044;2023-08-08T05:43:47;17.10;99.90
20706;DHT22;10514;49.468;11.044;2023-08-08T05:48:39;17.60;1.00
20706;DHT22;10514;49.468;11.044;2023-08-08T05:53:31;18.20;1.00
20706;DHT22;10514;49.468;11.044;2023-08-08T06:00:50;19.20;1.00
20706;DHT22;10514;49.468;11.044;2023-08-08T06:05:41;19.90;1.00
20706;DHT22;10514;49.468;11.044;2023-08-08T06:08:07;19.40;1.00
20706;DHT22;10514;49.468;11.044;2023-08-08T06:10:37;19.80;1.00
20706;DHT22;10514;49.468;11.044;2023-08-08T06:13:02;19.70;99.90
20706;DHT22;10514;49.468;11.044;2023-08-08T06:17:54;18.90;1.00
20706;DHT22;10514;49.468;11.044;2023-08-08T06:20:19;18.20;99.90
20706;DHT22;10514;49.468;11.044;2023-08-08T06:22:45;17.50;1.00
20706;DHT22;10514;49.468;11.044;2023-08-08T06:27:37;16.60;99.90
20706;DHT22;10514;49.468;11.044;2023-08-08T06:30:02;16.30;1.00
20706;DHT22;10514;49.468;11.044;2023-08-08T06:42:12;18.20;52.60
20706;DHT22;10514;49.468;11.044;2023-08-08T06:44:42;18.70;99.90
20706;DHT22;10514;49.468;11.044;2023-08-08T06:47:08;19.40;1.00
20706;DHT22;10514;49.468;11.044;2023-08-08T06:52:00;21.10;99.90
20706;DHT22;10514;49.468;11.044;2023-08-08T06:54:25;21.70;99.90
20706;DHT22;10514;49.468;11.044;2023-08-08T06:56:53;21.80;44.60
20706;DHT22;10514;49.468;11.044;2023-08-08T06:59:19;21.30;26.10
20706;DHT22;10514;49.468;11.044;2023-08-08T07:01:44;20.20;1.00
20706;DHT22;10514;49.468;11.044;2023-08-08T07:04:10;20.20;99.90
20706;DHT22;10514;49.468;11.044;2023-08-08T07:11:27;19.90;99.90
20706;DHT22;10514;49.468;11.044;2023-08-08T07:21:11;20.60;99.90
20706;DHT22;10514;49.468;11.044;2023-08-08T07:23:37;20.30;99.90
20706;DHT22;10514;49.468;11.044;2023-08-08T07:35:46;22.10;1.00
20706;DHT22;10514;49.468;11.044;2023-08-08T07:40:38;21.60;27.90
20706;DHT22;10514;49.468;11.044;2023-08-08T07:43:06;21.60;99.90
20706;DHT22;10514;49.468;11.044;2023-08-08T07:50:23;23.60;99.90
20706;DHT22;10514;49.468;11.044;2023-08-08T07:52:49;24.50;99.90
20706;DHT22;10514;49.468;11.044;2023-08-08T07:55:14;25.40;1.00
20706;DHT22;10514;49.468;11.044;2023-08-08T07:57:40;26.30;1.00
20706;DHT22;10514;49.468;11.044;2023-08-08T08:02:41;27.00;1.00
20706;DHT22;10514;49.468;11.044;2023-08-08T08:05:07;26.90;1.00
20706;DHT22;10514;49.468;11.044;2023-08-08T08:10:01;27.50;1.00
20706;DHT22;10514;49.468;11.044;2023-08-08T08:17:19;28.00;1.00
20706;DHT22;10514;49.468;11.044;2023-08-08T08:22:10;25.90;1.00
20706;DHT22;10514;49.468;11.044;2023-08-08T08:24:35;25.40;1.00
20706;DHT22;10514;49.468;11.044;2023-08-08T08:31:53;26.40;1.00
20706;DHT22;10514;49.468;11.044;2023-08-08T08:36:44;26.80;1.00
20706;DHT22;10514;49.468;11.044;2023-08-08T08:39:10;26.50;1.00
20706;DHT22;10514;49.468;11.044;2023-08-08T08:41:36;26.30;1.00
20706;DHT22;10514;49.468;11.044;2023-08-08T08:46:30;26.50;1.00
20706;DHT22;10514;49.468;11.044;2023-08-08T08:48:58;25.70;1.00
20706;DHT22;10514;49.468;11.044;2023-08-08T08:51:25;25.40;1.00
20706;DHT22;10514;49.468;11.044;2023-08-08T08:53:51;24.80;1.00
20706;DHT22;10514;49.468;11.044;2023-08-08T08:56:17;25.40;1.00
20706;DHT22;10514;49.468;11.044;2023-08-08T09:01:09;27.40;1.00
20706;DHT22;10514;49.468;11.044;2023-08-08T09:03:36;28.30;1.00
20706;DHT22;10514;49.468;11.044;2023-08-08T09:08:27;26.80;1.00
20706;DHT22;10514;49.468;11.044;2023-08-08T09:10:53;25.90;1.00
20706;DHT22;10514;49.468;11.044;2023-08-08T09:13:18;25.40;1.00
20706;DHT22;10514;49.468;11.044;2023-08-08T09:15:47;25.20;1.00
20706;DHT22;10514;49.468;11.044;2023-08-08T09:18:12;25.40;1.00
20706;DHT22;10514;49.468;11.044;2023-08-08T09:20:38;25.80;1.00
20706;DHT22;10514;49.468;11.044;2023-08-08T09:23:03;25.70;1.00
20706;DHT22;10514;49.468;11.044;2023-08-08T09:25:29;25.00;1.00
20706;DHT22;10514;49.468;11.044;2023-08-08T09:30:21;24.50;1.00
20706;DHT22;10514;49.468;11.044;2023-08-08T09:32:47;24.90;1.00
20706;DHT22;10514;49.468;11.044;2023-08-08T09:35:12;25.20;1.00
20706;DHT22;10514;49.468;11.044;2023-08-08T09:40:05;25.40;1.00
20706;DHT22;10514;49.468;11.044;2023-08-08T09:42:34;25.40;1.00
20706;DHT22;10514;49.468;11.044;2023-08-08T09:45:00;24.90;1.00
20706;DHT22;10514;49.468;11.044;2023-08-08T09:47:26;25.00;1.00
20706;DHT22;10514;49.468;11.044;2023-08-08T09:50:00;25.40;1.00
20706;DHT22;10514;49.468;11.044;2023-08-08T09:52:27;25.70;1.00
20706;DHT22;10514;49.468;11.044;2023-08-08T09:54:53;25.10;1.00
20706;DHT22;10514;49.468;11.044;2023-08-08T09:59:45;24.20;1.00
20706;DHT22;10514;49.468;11.044;2023-08-08T10:02:14;24.70;1.00
20706;DHT22;10514;49.468;11.044;2023-08-08T10:07:07;25.30;1.00
20706;DHT22;10514;49.468;11.044;2023-08-08T10:09:33;26.10;1.00
20706;DHT22;10514;49.468;11.044;2023-08-08T10:11:59;26.60;1.00
20706;DHT22;10514;49.468;11.044;2023-08-08T10:14:34;26.70;1.00
20706;DHT22;10514;49.468;11.044;2023-08-08T10:17:02;26.40;1.00
20706;DHT22;10514;49.468;11.044;2023-08-08T10:19:28;25.70;1.00
20706;DHT22;10514;49.468;11.044;2023-08-08T10:21:58;25.80;1.00
20706;DHT22;10514;49.468;11.044;2023-08-08T10:24:24;25.80;1.00
20706;DHT22;10514;49.468;11.044;2023-08-08T10:29:28;24.90;1.00
20706;DHT22;10514;49.468;11.044;2023-08-08T10:32:02;25.30;1.00
20706;DHT22;10514;49.468;11.044;2023-08-08T10:34:42;25.70;1.00
20706;DHT22;10514;49.468;11.044;2023-08-08T10:37:17;26.20;99.90
20706;DHT22;10514;49.468;11.044;2023-08-08T10:39:54;26.40;1.00
20706;DHT22;10514;49.468;11.044;2023-08-08T10:42:20;26.30;99.90
20706;DHT22;10514;49.468;11.044;2023-08-08T10:44:58;25.80;99.90
20706;DHT22;10514;49.468;11.044;2023-08-08T10:47:35;25.30;99.90
20706;DHT22;10514;49.468;11.044;2023-08-08T10:55:38;24.60;99.90
20706;DHT22;10514;49.468;11.044;2023-08-08T10:58:13;24.10;99.90
20706;DHT22;10514;49.468;11.044;2023-08-08T11:00:41;24.40;1.00
20706;DHT22;10514;49.468;11.044;2023-08-08T11:03:07;25.10;1.00
20706;DHT22;10514;49.468;11.044;2023-08-08T11:05:35;25.20;1.00
20706;DHT22;10514;49.468;11.044;2023-08-08T11:08:03;25.80;1.00
20706;DHT22;10514;49.468;11.044;2023-08-08T11:10:34;25.80;99.90
20706;DHT22;10514;49.468;11.044;2023-08-08T11:13:02;25.60;99.90
20706;DHT22;10514;49.468;11.044;2023-08-08T11:15:29;25.60;99.90
20706;DHT22;10514;49.468;11.044;2023-08-08T11:17:55;25.90;99.90
20706;DHT22;10514;49.468;11.044;2023-08-08T11:20:23;25.90;99.90
20706;DHT22;10514;49.468;11.044;2023-08-08T11:22:56;25.90;99.90
20706;DHT22;10514;49.468;11.044;2023-08-08T11:25:22;25.90;99.90
20706;DHT22;10514;49.468;11.044;2023-08-08T11:32:43;25.30;99.90
20706;DHT22;10514;49.468;11.044;2023-08-08T11:35:08;25.20;99.90
20706;DHT22;10514;49.468;11.044;2023-08-08T11:37:34;25.20;99.90
20706;DHT22;10514;49.468;11.044;2023-08-08T11:40:01;25.20;99.90
20706;DHT22;10514;49.468;11.044;2023-08-08T11:42:27;25.50;99.90
20706;DHT22;10514;49.468;11.044;2023-08-08T11:44:52;25.90;99.90
20706;DHT22;10514;49.468;11.044;2023-08-08T11:47:24;25.60;99.90
20706;DHT22;10514;49.468;11.044;2023-08-08T11:49:51;25.90;99.90
20706;DHT22;10514;49.468;11.044;2023-08-08T11:52:18;25.80;99.90
20706;DHT22;10514;49.468;11.044;2023-08-08T11:54:44;26.40;99.90
20706;DHT22;10514;49.468;11.044;2023-08-08T11:57:15;26.60;99.90
20706;DHT22;10514;49.468;11.044;2023-08-08T11:59:41;27.10;99.90
20706;DHT22;10514;49.468;11.044;2023-08-08T12:02:07;27.40;99.90
20706;DHT22;10514;49.468;11.044;2023-08-08T12:04:32;27.10;99.90
20706;DHT22;10514;49.468;11.044;2023-08-08T12:07:02;27.20;99.90
20706;DHT22;10514;49.468;11.044;2023-08-08T12:09:32;27.20;99.90
20706;DHT22;10514;49.468;11.044;2023-08-08T12:12:01;27.20;99.90
20706;DHT22;10514;49.468;11.044;2023-08-08T12:14:27;27.10;99.90
20706;DHT22;10514;49.468;11.044;2023-08-08T12:16:53;27.00;99.90
20706;DHT22;10514;49.468;11.044;2023-08-08T12:19:23;26.30;99.90
20706;DHT22;10514;49.468;11.044;2023-08-08T12:24:15;26.20;99.90
20706;DHT22;10514;49.468;11.044;2023-08-08T12:26:40;26.40;99.90
20706;DHT22;10514;49.468;11.044;2023-08-08T12:29:06;26.30;99.90
20706;DHT22;10514;49.468;11.044;2023-08-08T12:31:32;26.30;99.90
20706;DHT22;10514;49.468;11.044;2023-08-08T12:33:57;26.30;99.90
20706;DHT22;10514;49.468;11.044;2023-08-08T12:36:23;26.50;99.90
20706;DHT22;10514;49.468;11.044;2023-08-08T12:38:49;26.20;99.90
20706;DHT22;10514;49.468;11.044;2023-08-08T12:41:14;26.10;99.90
20706;DHT22;10514;49.468;11.044;2023-08-08T12:43:40;25.60;99.90
20706;DHT22;10514;49.468;11.044;2023-08-08T12:46:05;25.80;99.90
20706;DHT22;10514;49.468;11.044;2023-08-08T12:48:31;25.90;99.90
20706;DHT22;10514;49.468;11.044;2023-08-08T12:53:22;25.90;99.90
20706;DHT22;10514;49.468;11.044;2023-08-08T12:55:48;25.80;99.90
20706;DHT22;10514;49.468;11.044;2023-08-08T12:58:13;25.90;99.90
20706;DHT22;10514;49.468;11.044;2023-08-08T13:00:39;26.20;99.90
20706;DHT22;10514;49.468;11.044;2023-08-08T13:03:04;26.30;99.90
20706;DHT22;10514;49.468;11.044;2023-08-08T13:05:30;26.40;99.90
20706;DHT22;10514;49.468;11.044;2023-08-08T13:07:55;26.20;99.90
20706;DHT22;10514;49.468;11.044;2023-08-08T13:10:21;26.20;99.90
20706;DHT22;10514;49.468;11.044;2023-08-08T13:12:50;26.00;99.90
20706;DHT22;10514;49.468;11.044;2023-08-08T13:15:15;25.80;99.90
20706;DHT22;10514;49.468;11.044;2023-08-08T13:17:41;26.00;99.90
20706;DHT22;10514;49.468;11.044;2023-08-08T13:20:07;26.10;99.90
20706;DHT22;10514;49.468;11.044;2023-08-08T13:27:25;25.40;99.90
20706;DHT22;10514;49.468;11.044;2023-08-08T13:32:16;25.00;99.90
20706;DHT22;10514;49.468;11.044;2023-08-08T13:37:08;24.30;99.90
20706;DHT22;10514;49.468;11.044;2023-08-08T13:39:33;24.20;99.90
20706;DHT22;10514;49.468;11.044;2023-08-08T13:41:59;24.10;99.90
20706;DHT22;10514;49.468;11.044;2023-08-08T13:44:24;24.10;99.90
20706;DHT22;10514;49.468;11.044;2023-08-08T13:46:50;24.20;99.90
20706;DHT22;10514;49.468;11.044;2023-08-08T13:49:16;24.10;99.90
20706;DHT22;10514;49.468;11.044;2023-08-08T13:51:42;24.20;99.90
20706;DHT22;10514;49.468;11.044;2023-08-08T14:01:27;24.20;99.90
20706;DHT22;10514;49.468;11.044;2023-08-08T14:06:18;24.60;99.90
20706;DHT22;10514;49.468;11.044;2023-08-08T14:08:44;24.70;99.90
20706;DHT22;10514;49.468;11.044;2023-08-08T14:11:11;24.70;99.90
20706;DHT22;10514;49.468;11.044;2023-08-08T14:13:36;24.60;99.90
20706;DHT22;10514;49.468;11.044;2023-08-08T14:16:02;24.60;99.90
20706;DHT22;10514;49.468;11.044;2023-08-08T14:20:54;24.40;99.90
20706;DHT22;10514;49.468;11.044;2023-08-08T14:23:19;24.60;99.90
20706;DHT22;10514;49.468;11.044;2023-08-08T14:25:45;24.70;99.90
20706;DHT22;10514;49.468;11.044;2023-08-08T14:28:10;24.60;99.90
20706;DHT22;10514;49.468;11.044;2023-08-08T14:30:36;24.60;99.90
20706;DHT22;10514;49.468;11.044;2023-08-08T14:33:02;24.20;99.90
20706;DHT22;10514;49.468;11.044;2023-08-08T14:40:20;23.50;99.90
20706;DHT22;10514;49.468;11.044;2023-08-08T14:45:11;23.30;99.90
20706;DHT22;10514;49.468;11.044;2023-08-08T14:47:37;23.10;99.90
20706;DHT22;10514;49.468;11.044;2023-08-08T14:50:02;22.90;99.90
20706;DHT22;10514;49.468;11.044;2023-08-08T14:52:29;22.90;99.90
20706;DHT22;10514;49.468;11.044;2023-08-08T14:59:47;22.90;99.90
20706;DHT22;10514;49.468;11.044;2023-08-08T15:02:12;22.70;99.90
20706;DHT22;10514;49.468;11.044;2023-08-08T15:07:04;22.50;99.90
20706;DHT22;10514;49.468;11.044;2023-08-08T15:09:30;22.50;99.90
20706;DHT22;10514;49.468;11.044;2023-08-08T15:14:21;22.20;99.90
20706;DHT22;10514;49.468;11.044;2023-08-08T15:16:51;22.20;99.90
20706;DHT22;10514;49.468;11.044;2023-08-08T15:19:17;22.20;99.90
20706;DHT22;10514;49.468;11.044;2023-08-08T15:24:09;22.20;99.90
20706;DHT22;10514;49.468;11.044;2023-08-08T15:26:35;22.30;99.90
20706;DHT22;10514;49.468;11.044;2023-08-08T15:29:00;22.20;99.90
20706;DHT22;10514;49.468;11.044;2023-08-08T15:31:26;22.20;1.00
20706;DHT22;10514;49.468;11.044;2023-08-08T15:33:51;22.00;1.00
20706;DHT22;10514;49.468;11.044;2023-08-08T15:36:17;22.10;1.00
20706;DHT22;10514;49.468;11.044;2023-08-08T15:38:42;22.20;1.00
20706;DHT22;10514;49.468;11.044;2023-08-08T15:41:08;22.20;1.00
20706;DHT22;10514;49.468;11.044;2023-08-08T15:43:34;22.10;1.00
20706;DHT22;10514;49.468;11.044;2023-08-08T15:46:00;22.10;1.00
20706;DHT22;10514;49.468;11.044;2023-08-08T15:48:25;22.00;1.00
20706;DHT22;10514;49.468;11.044;2023-08-08T15:50:51;22.00;1.00
20706;DHT22;10514;49.468;11.044;2023-08-08T15:53:17;22.10;1.00
20706;DHT22;10514;49.468;11.044;2023-08-08T16:00:34;22.10;1.00
20706;DHT22;10514;49.468;11.044;2023-08-08T16:05:26;22.00;1.00
20706;DHT22;10514;49.468;11.044;2023-08-08T16:15:11;21.80;1.00
20706;DHT22;10514;49.468;11.044;2023-08-08T16:20:02;21.60;1.00
20706;DHT22;10514;49.468;11.044;2023-08-08T16:29:46;21.30;1.00
20706;DHT22;10514;49.468;11.044;2023-08-08T16:32:11;21.20;1.00
20706;DHT22;10514;49.468;11.044;2023-08-08T16:34:37;21.20;1.00
20706;DHT22;10514;49.468;11.044;2023-08-08T16:37:02;21.30;1.00
20706;DHT22;10514;49.468;11.044;2023-08-08T16:41:55;21.40;1.00
20706;DHT22;10514;49.468;11.044;2023-08-08T16:44:23;21.40;1.00
20706;DHT22;10514;49.468;11.044;2023-08-08T16:46:49;21.40;1.00
20706;DHT22;10514;49.468;11.044;2023-08-08T16:49:15;21.40;1.00
20706;DHT22;10514;49.468;11.044;2023-08-08T16:56:34;21.40;1.00
20706;DHT22;10514;49.468;11.044;2023-08-08T16:58:59;21.40;1.00
20706;DHT22;10514;49.468;11.044;2023-08-08T17:01:25;21.40;1.00
20706;DHT22;10514;49.468;11.044;2023-08-08T17:03:51;21.30;1.00
20706;DHT22;10514;49.468;11.044;2023-08-08T17:06:16;21.30;1.00
20706;DHT22;10514;49.468;11.044;2023-08-08T17:08:42;21.30;1.00
20706;DHT22;10514;49.468;11.044;2023-08-08T17:13:33;21.30;1.00
20706;DHT22;10514;49.468;11.044;2023-08-08T17:15:59;21.20;1.00
20706;DHT22;10514;49.468;11.044;2023-08-08T17:18:24;21.00;1.00
20706;DHT22;10514;49.468;11.044;2023-08-08T17:20:50;21.00;1.00
20706;DHT22;10514;49.468;11.044;2023-08-08T17:23:15;20.90;1.00
20706;DHT22;10514;49.468;11.044;2023-08-08T17:25:41;20.70;1.00
20706;DHT22;10514;49.468;11.044;2023-08-08T17:28:07;20.50;1.00
20706;DHT22;10514;49.468;11.044;2023-08-08T17:30:32;20.50;1.00
20706;DHT22;10514;49.468;11.044;2023-08-08T17:32:58;20.40;1.00
20706;DHT22;10514;49.468;11.044;2023-08-08T17:35:26;20.20;1.00
20706;DHT22;10514;49.468;11.044;2023-08-08T17:37:53;20.10;1.00
20706;DHT22;10514;49.468;11.044;2023-08-08T17:42:44;19.90;1.00
20706;DHT22;10514;49.468;11.044;2023-08-08T17:45:10;19.90;1.00
20706;DHT22;10514;49.468;11.044;2023-08-08T17:47:35;19.80;1.00
20706;DHT22;10514;49.468;11.044;2023-08-08T17:50:01;19.70;1.00
20706;DHT22;10514;49.468;11.044;2023-08-08T17:52:27;19.80;1.00
20706;DHT22;10514;49.468;11.044;2023-08-08T17:54:53;19.80;1.00
20706;DHT22;10514;49.468;11.044;2023-08-08T17:57:18;19.60;1.00
20706;DHT22;10514;49.468;11.044;2023-08-08T18:02:10;19.60;1.00
20706;DHT22;10514;49.468;11.044;2023-08-08T18:04:36;19.50;1.00
20706;DHT22;10514;49.468;11.044;2023-08-08T18:07:02;19.40;1.00
20706;DHT22;10514;49.468;11.044;2023-08-08T18:09:27;19.30;21.50
20706;DHT22;10514;49.468;11.044;2023-08-08T18:11:55;19.40;8.20
20706;DHT22;10514;49.468;11.044;2023-08-08T18:14:20;19.30;1.00
20706;DHT22;10514;49.468;11.044;2023-08-08T18:16:46;19.30;1.00
20706;DHT22;10514;49.468;11.044;2023-08-08T18:19:11;19.20;1.00
20706;DHT22;10514;49.468;11.044;2023-08-08T18:21:37;19.20;6.40
20706;DHT22;10514;49.468;11.044;2023-08-08T18:24:03;19.20;60.10
20706;DHT22;10514;49.468;11.044;2023-08-08T18:26:29;19.10;65.40
20706;DHT22;10514;49.468;11.044;2023-08-08T18:28:54;19.10;99.90
20706;DHT22;10514;49.468;11.044;2023-08-08T18:31:20;19.00;99.90
20706;DHT22;10514;49.468;11.044;2023-08-08T18:33:46;18.90;99.90
20706;DHT22;10514;49.468;11.044;2023-08-08T18:36:11;18.90;99.90
20706;DHT22;10514;49.468;11.044;2023-08-08T18:38:37;18.90;99.90
20706;DHT22;10514;49.468;11.044;2023-08-08T18:43:28;18.80;99.90
20706;DHT22;10514;49.468;11.044;2023-08-08T18:45:54;18.80;99.90
20706;DHT22;10514;49.468;11.044;2023-08-08T18:50:47;18.80;99.90
20706;DHT22;10514;49.468;11.044;2023-08-08T18:53:14;18.80;99.90
20706;DHT22;10514;49.468;11.044;2023-08-08T18:55:39;18.80;99.90
20706;DHT22;10514;49.468;11.044;2023-08-08T19:00:32;18.80;99.90
20706;DHT22;10514;49.468;11.044;2023-08-08T19:02:58;18.70;99.90
20706;DHT22;10514;49.468;11.044;2023-08-08T19:05:23;18.60;99.90
20706;DHT22;10514;49.468;11.044;2023-08-08T19:07:49;18.60;99.90
20706;DHT22;10514;49.468;11.044;2023-08-08T19:10:15;18.60;1.00
20706;DHT22;10514;49.468;11.044;2023-08-08T19:15:08;18.60;1.00
20706;DHT22;10514;49.468;11.044;2023-08-08T19:17:34;18.60;1.00
20706;DHT22;10514;49.468;11.044;2023-08-08T19:24:51;18.50;1.00
20706;DHT22;10514;49.468;11.044;2023-08-08T19:27:18;18.50;1.00
20706;DHT22;10514;49.468;11.044;2023-08-08T19:29:44;18.50;1.00
20706;DHT22;10514;49.468;11.044;2023-08-08T19:32:10;18.50;1.00
20706;DHT22;10514;49.468;11.044;2023-08-08T19:34:35;18.40;1.00
20706;DHT22;10514;49.468;11.044;2023-08-08T19:37:01;18.30;1.00
20706;DHT22;10514;49.468;11.044;2023-08-08T19:39:27;18.20;1.00
20706;DHT22;10514;49.468;11.044;2023-08-08T19:41:52;18.20;1.00
20706;DHT22;10514;49.468;11.044;2023-08-08T19:46:44;18.40;1.00
20706;DHT22;10514;49.468;11.044;2023-08-08T19:49:10;18.30;1.00
20706;DHT22;10514;49.468;11.044;2023-08-08T19:54:02;18.20;1.00
20706;DHT22;10514;49.468;11.044;2023-08-08T19:56:28;18.20;1.00
20706;DHT22;10514;49.468;11.044;2023-08-08T19:58:53;18.30;99.90
20706;DHT22;10514;49.468;11.044;2023-08-08T20:01:19;18.40;99.90